createdAt,value
2024-04-18T00:00:16.319Z,7.54
2024-04-18T00:02:49.291Z,7.49
2024-04-18T00:05:34.067Z,7.49
2024-04-18T00:08:03.905Z,7.39
2024-04-18T00:10:31.371Z,7.53
2024-04-18T00:13:01.234Z,7.43
2024-04-18T00:15:28.807Z,7.33
2024-04-18T00:18:02.178Z,7.38
2024-04-18T00:20:29.483Z,7.40
2024-04-18T00:23:19.269Z,7.28
2024-04-18T00:26:06.587Z,7.41
2024-04-18T00:28:36.519Z,7.39
2024-04-18T00:31:16.146Z,7.48
2024-04-18T00:34:03.399Z,7.34
2024-04-18T00:36:30.896Z,7.39
2024-04-18T00:39:45.559Z,7.37
2024-04-18T00:42:12.895Z,7.34
2024-04-18T00:45:03.016Z,7.30
2024-04-18T00:47:43.564Z,7.18
2024-04-18T00:50:17.302Z,7.20
2024-04-18T00:52:46.199Z,7.12
2024-04-18T00:55:30.869Z,7.23
2024-04-18T00:58:11.743Z,7.30
2024-04-18T01:00:45.415Z,7.17
2024-04-18T01:03:31.522Z,7.21
2024-04-18T01:06:13.821Z,7.07
2024-04-18T01:09:01.800Z,7.07
2024-04-18T01:11:35.800Z,7.12
2024-04-18T01:14:09.706Z,7.13
2024-04-18T01:16:58.130Z,7.20
2024-04-18T01:19:25.714Z,7.23
2024-04-18T01:22:02.196Z,7.14
2024-04-18T01:24:32.252Z,7.09
2024-04-18T01:27:04.728Z,7.14
2024-04-18T01:29:47.645Z,7.17
2024-04-18T01:32:50.375Z,7.17
2024-04-18T01:35:20.339Z,7.16
2024-04-18T01:37:50.605Z,7.09
2024-04-18T01:40:21.618Z,7.08
2024-04-18T01:43:14.661Z,7.03
2024-04-18T01:46:03.046Z,6.90
2024-04-18T01:48:30.420Z,7.03
2024-04-18T01:51:18.843Z,6.98
2024-04-18T01:53:46.166Z,6.91
2024-04-18T01:56:22.327Z,6.86
2024-04-18T01:58:52.317Z,6.91
2024-04-18T02:01:28.521Z,6.82
2024-04-18T02:03:55.886Z,6.74
2024-04-18T02:06:26.007Z,6.78
2024-04-18T02:10:09.609Z,6.68
2024-04-18T02:13:00.021Z,6.70
2024-04-18T02:15:48.300Z,6.66
2024-04-18T02:18:43.540Z,6.60
2024-04-18T02:21:13.614Z,6.66
2024-04-18T02:23:54.759Z,6.62
2024-04-18T02:26:21.964Z,6.53
2024-04-18T02:28:51.823Z,6.45
2024-04-18T02:31:22.692Z,6.55
2024-04-18T02:33:56.286Z,6.55
2024-04-18T02:36:25.532Z,6.45
2024-04-18T02:38:55.562Z,6.41
2024-04-18T02:41:22.846Z,6.32
2024-04-18T02:43:55.219Z,6.30
2024-04-18T02:46:26.281Z,6.33
2024-04-18T02:49:14.883Z,6.26
2024-04-18T02:51:58.252Z,6.25
2024-04-18T02:54:47.008Z,6.14
2024-04-18T02:57:14.644Z,6.17
2024-04-18T02:59:45.166Z,6.18
2024-04-18T03:02:24.905Z,6.07
2024-04-18T03:04:54.999Z,6.08
2024-04-18T03:07:24.229Z,5.97
2024-04-18T03:09:54.692Z,6.06
2024-04-18T03:12:28.452Z,6.06
2024-04-18T03:15:23.410Z,5.99
2024-04-18T03:18:13.348Z,6.01
2024-04-18T03:20:43.465Z,6.00
2024-04-18T03:23:10.833Z,6.00
2024-04-18T03:25:59.917Z,5.91
2024-04-18T03:28:27.252Z,5.83
2024-04-18T03:30:57.060Z,5.85
2024-04-18T03:33:26.984Z,5.86
2024-04-18T03:35:56.964Z,5.89
2024-04-18T03:38:26.846Z,5.87
2024-04-18T03:41:00.480Z,5.81
2024-04-18T03:43:30.466Z,5.82
2024-04-18T03:46:01.325Z,5.73
2024-04-18T03:48:31.396Z,5.75
2024-04-18T03:51:01.362Z,5.72
2024-04-18T03:53:47.514Z,5.66
2024-04-18T03:56:17.374Z,5.68
2024-04-18T03:58:44.705Z,5.70
2024-04-18T04:01:14.829Z,5.66
2024-04-18T04:03:44.987Z,5.58
2024-04-18T04:06:16.788Z,5.60
2024-04-18T04:08:44.169Z,5.49
2024-04-18T04:11:15.004Z,5.54
2024-04-18T04:13:42.390Z,5.55
2024-04-18T04:16:22.172Z,5.47
2024-04-18T04:19:12.104Z,5.52
2024-04-18T04:21:51.641Z,5.51
2024-04-18T04:24:19.168Z,5.44
2024-04-18T04:26:52.680Z,5.49
2024-04-18T04:29:20.292Z,5.47
2024-04-18T04:31:50.213Z,5.43
2024-04-18T04:34:20.072Z,5.39
2024-04-18T04:36:49.972Z,5.33
2024-04-18T04:39:17.305Z,5.38
2024-04-18T04:41:47.201Z,5.35
2024-04-18T04:44:14.502Z,5.31
2024-04-18T04:46:54.875Z,5.28
2024-04-18T04:49:24.877Z,5.31
2024-04-18T04:52:04.068Z,5.32
2024-04-18T04:54:43.318Z,5.29
2024-04-18T04:57:15.018Z,5.28
2024-04-18T04:59:42.764Z,5.21
2024-04-18T05:02:12.623Z,5.25
2024-04-18T05:04:52.177Z,5.23
2024-04-18T05:07:36.780Z,5.19
2024-04-18T05:10:29.565Z,5.22
2024-04-18T05:12:56.778Z,5.20
2024-04-18T05:15:38.919Z,5.22
2024-04-18T05:18:06.757Z,5.18
2024-04-18T05:20:40.037Z,5.15
2024-04-18T05:23:08.668Z,5.20
2024-04-18T05:25:39.588Z,5.18
2024-04-18T05:28:22.507Z,5.22
2024-04-18T05:31:06.947Z,5.10
2024-04-18T05:33:35.455Z,5.17
2024-04-18T05:36:08.658Z,5.05
2024-04-18T05:38:38.509Z,5.18
2024-04-18T05:41:08.443Z,5.10
2024-04-18T05:43:53.337Z,5.20
2024-04-18T05:47:35.014Z,5.23
2024-04-18T05:50:04.700Z,5.20
2024-04-18T05:52:37.165Z,5.26
2024-04-18T05:55:23.712Z,5.29
2024-04-18T05:57:51.051Z,5.30
2024-04-18T06:05:15.689Z,5.40
2024-04-18T06:08:07.078Z,5.44
2024-04-18T06:14:43.734Z,5.49
2024-04-18T06:17:13.577Z,5.59
2024-04-18T06:19:53.371Z,5.63
2024-04-18T06:22:35.619Z,5.66
2024-04-18T06:25:27.368Z,5.72
2024-04-18T06:27:57.268Z,5.81
2024-04-18T06:30:27.222Z,5.89
2024-04-18T06:32:57.283Z,5.95
2024-04-18T06:35:27.251Z,5.94
2024-04-18T06:37:57.121Z,6.02
2024-04-18T06:40:29.601Z,6.08
2024-04-18T06:42:59.507Z,6.17
2024-04-18T06:45:30.036Z,6.20
2024-04-18T06:48:00.124Z,6.29
2024-04-18T06:50:30.408Z,6.41
2024-04-18T06:52:57.606Z,6.47
2024-04-18T06:55:30.135Z,6.60
2024-04-18T06:58:00.019Z,6.87
2024-04-18T07:00:30.690Z,7.17
2024-04-18T07:03:00.662Z,7.47
2024-04-18T07:05:56.670Z,7.80
2024-04-18T07:08:26.956Z,8.25
2024-04-18T07:11:00.433Z,8.63
2024-04-18T07:13:33.032Z,8.89
2024-04-18T07:16:07.687Z,9.12
2024-04-18T07:18:56.336Z,9.21
2024-04-18T07:21:26.314Z,9.65
2024-04-18T07:24:16.159Z,9.70
2024-04-18T07:26:48.585Z,9.73
2024-04-18T07:29:18.569Z,9.80
2024-04-18T07:31:48.528Z,10.56
2024-04-18T07:34:18.629Z,10.95
2024-04-18T07:36:50.232Z,11.20
2024-04-18T07:39:20.956Z,11.09
2024-04-18T07:41:53.568Z,11.72
2024-04-18T07:44:25.024Z,11.36
2024-04-18T07:46:55.135Z,11.69
2024-04-18T07:49:22.486Z,12.23
2024-04-18T07:51:53.193Z,11.96
2024-04-18T07:54:23.255Z,12.14
2024-04-18T07:56:56.019Z,12.31
2024-04-18T07:59:26.502Z,12.38
2024-04-18T08:01:58.244Z,12.61
2024-04-18T08:04:50.116Z,12.73
2024-04-18T08:07:22.282Z,11.31
2024-04-18T08:09:57.243Z,11.48
2024-04-18T08:12:35.546Z,12.10
2024-04-18T08:15:14.303Z,11.98
2024-04-18T08:17:47.450Z,11.85
2024-04-18T08:20:17.338Z,11.41
2024-04-18T08:22:47.674Z,11.15
2024-04-18T08:29:28.180Z,11.07
2024-04-18T08:31:58.471Z,10.95
2024-04-18T08:34:29.236Z,10.69
2024-04-18T08:37:00.529Z,10.57
2024-04-18T08:39:30.491Z,10.74
2024-04-18T08:42:00.583Z,10.38
2024-04-18T08:44:33.204Z,10.50
2024-04-18T08:47:04.172Z,10.49
2024-04-18T08:49:34.567Z,10.90
2024-04-18T08:52:04.648Z,10.24
2024-04-18T08:54:34.942Z,10.75
2024-04-18T08:57:08.587Z,10.51
2024-04-18T08:59:41.362Z,10.71
2024-04-18T09:06:18.946Z,10.78
2024-04-18T09:08:48.723Z,10.71
2024-04-18T09:11:18.696Z,11.27
2024-04-18T09:13:49.833Z,11.64
2024-04-18T09:16:22.627Z,11.96
2024-04-18T09:18:52.641Z,12.09
2024-04-18T09:21:24.000Z,12.72
2024-04-18T09:23:54.477Z,13.48
2024-04-18T09:26:24.359Z,13.53
2024-04-18T09:28:54.191Z,13.49
2024-04-18T09:31:37.828Z,13.78
2024-04-18T09:34:13.320Z,13.71
2024-04-18T09:36:44.362Z,13.58
2024-04-18T09:39:19.841Z,13.72
2024-04-18T09:41:57.905Z,14.45
2024-04-18T09:44:32.150Z,14.54
2024-04-18T09:47:05.307Z,14.81
2024-04-18T09:49:35.904Z,14.35
2024-04-18T09:52:06.455Z,15.16
2024-04-18T09:54:36.668Z,14.44
2024-04-18T09:57:08.075Z,14.88
2024-04-18T09:59:41.759Z,14.44
2024-04-18T10:02:16.118Z,14.46
2024-04-18T10:04:46.930Z,14.30
2024-04-18T10:07:19.511Z,14.05
2024-04-18T10:09:51.861Z,13.90
2024-04-18T10:12:23.150Z,14.05
2024-04-18T10:14:54.058Z,13.83
2024-04-18T10:17:33.486Z,14.14
2024-04-18T10:20:03.430Z,14.37
2024-04-18T10:22:45.333Z,14.46
2024-04-18T10:25:22.414Z,14.94
2024-04-18T10:28:23.747Z,15.19
2024-04-18T12:48:22.694Z,21.02
2024-04-18T12:50:55.241Z,21.48
2024-04-18T12:53:43.921Z,20.90
2024-04-18T12:56:13.993Z,20.24
2024-04-18T12:58:47.069Z,20.06
2024-04-18T13:01:17.393Z,20.37
2024-04-18T13:03:51.488Z,20.08
2024-04-18T13:06:41.565Z,21.28
2024-04-18T13:09:30.006Z,21.56
2024-04-18T13:12:02.848Z,21.43
2024-04-18T13:14:52.948Z,21.35
2024-04-18T13:17:22.984Z,21.34
2024-04-18T13:19:55.731Z,20.55
2024-04-18T13:22:22.873Z,21.36
2024-04-18T13:24:52.836Z,21.48
2024-04-18T13:27:27.130Z,21.56
2024-04-18T13:29:57.038Z,20.46
2024-04-18T13:32:37.887Z,21.41
2024-04-18T13:35:11.571Z,21.70
2024-04-18T13:37:41.361Z,22.08
2024-04-18T13:40:21.330Z,20.23
2024-04-18T13:43:01.366Z,20.89
2024-04-18T13:45:35.823Z,21.33
2024-04-18T13:48:04.020Z,20.61
2024-04-18T13:50:49.641Z,20.56
2024-04-18T13:53:19.446Z,21.50
2024-04-18T13:55:50.773Z,21.17
2024-04-18T13:58:19.077Z,21.00
2024-04-18T14:01:03.018Z,20.55
2024-04-18T14:03:34.481Z,20.02
2024-04-18T14:06:12.358Z,20.41
2024-04-18T14:08:40.100Z,19.19
2024-04-18T14:11:30.023Z,19.18
2024-04-18T14:14:08.550Z,19.63
2024-04-18T14:16:54.191Z,19.27
2024-04-18T14:19:36.146Z,19.59
2024-04-18T14:22:11.400Z,19.08
2024-04-18T14:24:41.683Z,18.18
2024-04-18T14:27:20.112Z,19.08
2024-04-18T14:34:47.577Z,18.37
2024-04-18T14:37:20.617Z,18.31
2024-04-18T14:39:50.519Z,18.81
2024-04-18T14:42:20.493Z,18.19
2024-04-18T14:45:40.781Z,18.31
2024-04-18T14:48:13.188Z,18.30
2024-04-18T14:50:53.618Z,18.16
2024-04-18T14:53:46.064Z,18.02
2024-04-18T14:56:15.860Z,17.78
2024-04-18T14:59:04.159Z,17.66
2024-04-18T15:01:34.053Z,17.90
2024-04-18T15:04:04.113Z,17.18
2024-04-18T15:06:54.184Z,17.27
2024-04-18T15:09:44.563Z,17.20
2024-04-18T15:12:14.768Z,17.52
2024-04-18T15:14:44.611Z,17.76
2024-04-18T15:17:16.443Z,18.14
2024-04-18T15:19:46.267Z,17.65
2024-04-18T15:22:36.124Z,17.80
2024-04-18T15:25:27.241Z,17.72
2024-04-18T15:27:57.018Z,17.22
2024-04-18T15:30:26.918Z,17.43
2024-04-18T15:32:56.850Z,17.82
2024-04-18T15:35:26.748Z,17.37
2024-04-18T15:38:15.441Z,17.52
2024-04-18T15:41:07.969Z,17.44
2024-04-18T15:43:38.538Z,17.56
2024-04-18T15:46:08.296Z,16.59
2024-04-18T15:48:38.271Z,16.92
2024-04-18T15:51:09.646Z,17.04
2024-04-18T15:53:59.568Z,17.01
2024-04-18T15:56:31.912Z,16.93
2024-04-18T15:59:02.633Z,16.49
2024-04-18T16:01:50.885Z,16.89
2024-04-18T16:04:39.319Z,16.79
2024-04-18T16:07:06.461Z,16.61
2024-04-18T16:09:54.525Z,16.57
2024-04-18T16:12:27.157Z,16.28
2024-04-18T16:15:03.375Z,16.29
2024-04-18T16:17:35.260Z,16.23
2024-04-18T16:20:14.664Z,16.37
2024-04-18T16:22:44.792Z,16.38
2024-04-18T16:25:31.294Z,15.96
2024-04-18T16:28:04.744Z,15.82
2024-04-18T16:30:34.608Z,15.60
2024-04-18T16:33:05.010Z,15.75
2024-04-18T16:35:35.026Z,15.59
2024-04-18T16:38:14.172Z,15.55
2024-04-18T16:40:53.197Z,15.22
2024-04-18T16:43:37.985Z,15.20
2024-04-18T16:46:09.200Z,14.94
2024-04-18T16:48:40.247Z,14.82
2024-04-18T16:51:10.234Z,14.85
2024-04-18T16:53:59.296Z,14.96
2024-04-18T16:56:41.030Z,14.88
2024-04-18T16:59:14.223Z,14.72
2024-04-18T17:01:44.036Z,14.93
2024-04-18T17:04:14.062Z,14.57
2024-04-18T17:07:03.962Z,14.69
2024-04-18T17:09:53.798Z,14.49
2024-04-18T17:12:23.861Z,14.48
2024-04-18T17:15:15.344Z,14.51
2024-04-18T17:17:45.322Z,14.48
2024-04-18T17:20:27.652Z,14.30
2024-04-18T17:22:57.480Z,14.44
2024-04-18T17:25:29.121Z,14.30
2024-04-18T17:27:58.906Z,14.13
2024-04-18T17:30:31.387Z,14.19
2024-04-18T17:33:26.828Z,14.22
2024-04-18T17:36:04.432Z,14.21
2024-04-18T17:38:51.920Z,14.26
2024-04-18T17:41:30.987Z,14.32
2024-04-18T17:44:19.322Z,14.18
2024-04-18T17:47:03.357Z,14.26
2024-04-18T17:49:33.506Z,14.26
2024-04-18T17:52:03.387Z,14.16
2024-04-18T17:54:33.309Z,14.15
2024-04-18T17:57:04.244Z,14.16
2024-04-18T17:59:33.933Z,14.08
2024-04-18T18:02:07.520Z,14.00
2024-04-18T18:04:59.623Z,13.93
2024-04-18T18:07:29.692Z,13.75
2024-04-18T18:09:59.562Z,13.86
2024-04-18T18:12:29.332Z,13.73
2024-04-18T18:14:59.856Z,13.61
2024-04-18T18:17:35.905Z,13.61
2024-04-18T18:20:06.533Z,13.32
2024-04-18T18:22:50.363Z,13.10
2024-04-18T18:25:20.237Z,13.07
2024-04-18T18:27:47.540Z,13.13
2024-04-18T18:30:32.395Z,12.94
2024-04-18T18:33:20.913Z,12.76
2024-04-18T18:35:50.962Z,12.81
2024-04-18T18:38:18.623Z,12.53
2024-04-18T18:40:48.630Z,12.51
2024-04-18T18:43:24.897Z,12.63
2024-04-18T18:45:55.096Z,12.53
2024-04-18T18:48:25.171Z,12.50
2024-04-18T18:51:09.042Z,12.23
2024-04-18T18:53:36.363Z,12.31
2024-04-18T18:56:06.984Z,11.98
2024-04-18T18:59:12.986Z,12.14
2024-04-18T19:01:42.998Z,12.16
2024-04-18T19:04:29.041Z,11.97
2024-04-18T19:06:56.518Z,11.93
2024-04-18T19:09:26.429Z,11.89
2024-04-18T19:11:56.328Z,11.95
2024-04-18T19:14:23.639Z,11.74
2024-04-18T19:17:09.159Z,11.70
2024-04-18T19:19:39.130Z,11.60
2024-04-18T19:22:08.998Z,11.65
2024-04-18T19:24:39.464Z,11.69
2024-04-18T19:27:09.339Z,11.34
2024-04-18T19:29:44.756Z,11.42
2024-04-18T19:32:18.607Z,11.42
2024-04-18T19:34:48.579Z,11.35
2024-04-18T19:37:18.560Z,11.49
2024-04-18T19:39:45.853Z,11.44
2024-04-18T19:42:17.710Z,11.48
2024-04-18T19:44:45.044Z,11.40
2024-04-18T19:47:14.890Z,11.39
2024-04-18T19:49:42.131Z,11.45
2024-04-18T19:52:14.578Z,11.43
2024-04-18T19:54:41.887Z,11.48
2024-04-18T19:57:11.809Z,11.47
2024-04-18T19:59:39.342Z,11.45
2024-04-18T20:02:09.678Z,11.50
2024-04-18T20:04:37.008Z,11.52
2024-04-18T20:07:07.190Z,11.58
2024-04-18T20:09:37.219Z,11.50
2024-04-18T20:12:08.257Z,11.54
2024-04-18T20:14:38.292Z,11.56
2024-04-18T20:17:05.870Z,11.62
2024-04-18T20:19:35.835Z,11.47
2024-04-18T20:22:03.338Z,11.38
2024-04-18T20:24:35.670Z,11.47
2024-04-18T20:27:26.487Z,11.38
2024-04-18T20:29:57.107Z,11.35
2024-04-18T20:32:25.567Z,11.27
2024-04-18T20:34:56.468Z,11.30
2024-04-18T20:37:24.533Z,11.21
2024-04-18T20:39:57.624Z,11.17
2024-04-18T20:42:56.995Z,11.09
2024-04-18T20:45:24.155Z,11.02
2024-04-18T20:47:55.233Z,10.96
2024-04-18T20:50:22.625Z,10.99
2024-04-18T20:52:52.482Z,10.83
2024-04-18T20:55:19.698Z,10.67
2024-04-18T20:57:49.486Z,10.60
2024-04-18T21:00:29.024Z,10.72
2024-04-18T21:03:00.591Z,10.67
2024-04-18T21:05:27.936Z,10.42
2024-04-18T21:07:57.765Z,10.36
2024-04-18T21:10:24.955Z,10.36
2024-04-18T21:12:54.772Z,10.39
2024-04-18T21:15:24.585Z,10.24
2024-04-18T21:17:55.276Z,10.11
2024-04-18T21:20:22.643Z,10.06
2024-04-18T21:22:54.799Z,10.13
2024-04-18T21:25:22.189Z,10.00
2024-04-18T21:28:17.594Z,9.91
2024-04-18T21:30:47.552Z,9.89
2024-04-18T21:33:17.617Z,9.89
2024-04-18T21:35:46.882Z,9.76
2024-04-18T21:38:46.599Z,9.88
2024-04-18T21:41:21.876Z,9.63
2024-04-18T21:43:51.713Z,9.54
2024-04-18T21:46:27.869Z,9.53
2024-04-18T21:48:57.877Z,9.47
2024-04-18T21:51:25.453Z,9.47
2024-04-18T21:53:55.442Z,9.29
2024-04-18T21:56:22.784Z,9.17
2024-04-18T21:58:55.058Z,9.21
2024-04-18T22:01:43.477Z,9.20
2024-04-18T22:04:14.218Z,9.16
2024-04-18T22:06:41.785Z,9.18
2024-04-18T22:09:12.136Z,9.04
2024-04-18T22:11:41.223Z,9.05
2024-04-18T22:14:11.366Z,9.05
2024-04-18T22:16:38.594Z,9.02
2024-04-18T22:19:11.288Z,9.01
2024-04-18T22:21:39.735Z,8.97
2024-04-18T22:24:10.708Z,9.02
2024-04-18T22:26:38.095Z,8.98
2024-04-18T22:29:07.947Z,8.94
2024-04-18T22:31:35.256Z,8.92
2024-04-18T22:34:05.245Z,8.96
2024-04-18T22:36:37.920Z,9.01
2024-04-18T22:39:05.789Z,8.96
2024-04-18T22:41:35.688Z,8.92
2024-04-18T22:44:03.045Z,9.08
2024-04-18T22:47:23.464Z,8.97
2024-04-18T22:50:44.418Z,8.86
2024-04-18T22:53:14.458Z,8.91
2024-04-18T22:55:44.351Z,8.96
2024-04-18T22:58:13.537Z,8.92
2024-04-18T23:00:44.356Z,8.81
2024-04-18T23:03:11.766Z,8.83
2024-04-18T23:05:41.673Z,8.70
2024-04-18T23:08:09.090Z,8.65
2024-04-18T23:10:42.257Z,8.87
2024-04-18T23:13:09.573Z,8.80
2024-04-18T23:15:48.649Z,8.74
2024-04-18T23:18:18.627Z,8.75
2024-04-18T23:20:46.478Z,8.74
2024-04-18T23:23:17.051Z,8.73
2024-04-18T23:25:47.683Z,8.67
2024-04-18T23:28:17.657Z,8.69
2024-04-18T23:30:45.764Z,8.67
2024-04-18T23:33:16.436Z,8.71
2024-04-18T23:35:44.189Z,8.68
2024-04-18T23:38:14.395Z,8.66
2024-04-18T23:40:42.169Z,8.70
2024-04-18T23:43:14.781Z,8.71
2024-04-18T23:45:42.495Z,8.75
2024-04-18T23:48:14.895Z,8.77
2024-04-18T23:50:42.884Z,8.65
2024-04-18T23:53:12.894Z,8.71
2024-04-18T23:55:41.083Z,8.78
2024-04-18T23:58:11.013Z,8.75
